Time;durP1;ratioP1;P1;durP2;ratioP2;P2;SDS_P1;SDS_P2;PMS_P1;PMS_P2;Temp;Humidity;BMP_temperature;BMP_pressure;BME280_temperature;BME280_humidity;BME280_pressure;Samples;Min_cycle;Max_cycle;Signal;HPM_P1;HPM_P2
2021/06/13 00:01:23;;;;;;;7.55;5.53;;;;;;;;;;6151310;23;20273;-92
2021/06/13 00:04:28;;;;;;;7.63;4.95;;;;;;;;;;6168025;23;20669;-92
2021/06/13 00:07:34;;;;;;;8.43;5.38;;;;;;;;;;6142871;23;20216;-91
2021/06/13 00:10:39;;;;;;;8.73;5.28;;;;;;;;;;6168818;23;20172;-91
2021/06/13 00:13:44;;;;;;;7.75;5.30;;;;;;;;;;6149581;23;20175;-90
2021/06/13 00:16:48;;;;;;;10.63;5.60;;;;;;;;;;6166698;23;20173;-91
2021/06/13 00:19:55;;;;;;;9.10;5.13;;;;;;;;;;6167438;23;20285;-91
2021/06/13 00:23:01;;;;;;;8.90;5.75;;;;;;;;;;6166112;23;20199;-91
2021/06/13 00:26:06;;;;;;;9.48;5.28;;;;;;;;;;6150570;23;20215;-92
2021/06/13 00:29:11;;;;;;;8.48;5.38;;;;;;;;;;6167134;23;20685;-91
2021/06/13 00:32:15;;;;;;;8.73;5.97;;;;;;;;;;6166550;23;20168;-91
2021/06/13 00:35:20;;;;;;;7.60;5.78;;;;;;;;;;6165628;23;20192;-91
2021/06/13 00:38:26;;;;;;;7.32;5.55;;;;;;;;;;6166237;23;20169;-90
2021/06/13 00:41:31;;;;;;;9.40;5.88;;;;;;;;;;6166492;23;20181;-90
2021/06/13 00:44:35;;;;;;;9.40;6.10;;;;;;;;;;6166589;23;20173;-90
2021/06/13 00:47:40;;;;;;;8.02;6.20;;;;;;;;;;6167754;23;20236;-90
2021/06/13 00:50:47;;;;;;;11.55;5.90;;;;;;;;;;6166180;23;20241;-90
2021/06/13 00:53:55;;;;;;;9.63;6.35;;;;;;;;;;6166962;23;20232;-90
2021/06/13 00:57:03;;;;;;;9.57;5.95;;;;;;;;;;6166678;23;20212;-90
2021/06/13 01:00:09;;;;;;;7.95;6.25;;;;;;;;;;6168690;23;20200;-91
2021/06/13 01:03:14;;;;;;;13.70;5.78;;;;;;;;;;6169689;23;20274;-91
2021/06/13 01:06:22;;;;;;;8.13;6.03;;;;;;;;;;6167720;23;20165;-91
2021/06/13 01:09:30;;;;;;;10.82;6.80;;;;;;;;;;6168612;23;20220;-90
2021/06/13 01:12:38;;;;;;;11.25;6.53;;;;;;;;;;6166823;23;20168;-90
2021/06/13 01:15:45;;;;;;;7.97;6.07;;;;;;;;;;6165760;23;20519;-91
2021/06/13 01:18:51;;;;;;;11.77;6.20;;;;;;;;;;6165452;23;20220;-90
2021/06/13 01:22:01;;;;;;;11.48;6.32;;;;;;;;;;6166751;23;20188;-90
2021/06/13 01:25:15;;;;;;;9.02;6.28;;;;;;;;;;6166626;23;20172;-90
2021/06/13 01:28:51;;;;;;;9.68;6.18;;;;;;;;;;6148018;23;20249;-90
2021/06/13 01:31:59;;;;;;;11.10;6.32;;;;;;;;;;6148758;23;20169;-91
2021/06/13 01:35:07;;;;;;;9.63;6.13;;;;;;;;;;6149018;23;20216;-90
2021/06/13 01:38:13;;;;;;;11.55;6.15;;;;;;;;;;6149655;23;20175;-90
2021/06/13 01:41:21;;;;;;;8.27;6.40;;;;;;;;;;6148530;23;20533;-91
2021/06/13 01:44:29;;;;;;;8.27;6.25;;;;;;;;;;6149014;23;20173;-91
2021/06/13 01:47:35;;;;;;;8.95;6.10;;;;;;;;;;6148911;23;20169;-91
2021/06/13 01:50:42;;;;;;;8.32;6.32;;;;;;;;;;6148646;23;20188;-90
2021/06/13 01:53:48;;;;;;;8.10;5.90;;;;;;;;;;6148383;23;20224;-91
2021/06/13 01:56:58;;;;;;;8.82;6.13;;;;;;;;;;6149544;23;20243;-90
2021/06/13 02:00:16;;;;;;;13.10;6.90;;;;;;;;;;6150479;23;20221;-91
2021/06/13 02:03:31;;;;;;;9.52;5.70;;;;;;;;;;6150428;23;20172;-91
2021/06/13 02:06:58;;;;;;;9.57;6.43;;;;;;;;;;6170372;23;20152;-91
2021/06/13 02:10:10;;;;;;;8.25;6.40;;;;;;;;;;6168480;23;20185;-89
2021/06/13 02:13:17;;;;;;;10.32;6.55;;;;;;;;;;6168632;23;20196;-90
2021/06/13 02:16:28;;;;;;;13.45;6.10;;;;;;;;;;6169646;23;20655;-90
2021/06/13 02:19:33;;;;;;;13.45;6.25;;;;;;;;;;6166993;23;20172;-89
2021/06/13 02:22:45;;;;;;;8.05;6.18;;;;;;;;;;6150764;23;20168;-90
2021/06/13 02:25:50;;;;;;;8.20;6.05;;;;;;;;;;6150195;23;20187;-88
2021/06/13 02:28:57;;;;;;;12.45;6.18;;;;;;;;;;6151588;23;20200;-90
2021/06/13 02:32:06;;;;;;;11.60;6.45;;;;;;;;;;6151728;23;20655;-90
2021/06/13 02:35:12;;;;;;;10.95;6.95;;;;;;;;;;6167609;23;20279;-91
2021/06/13 02:38:22;;;;;;;9.93;6.20;;;;;;;;;;6152592;23;20210;-90
2021/06/13 02:41:33;;;;;;;9.13;6.75;;;;;;;;;;6150648;23;20224;-90
2021/06/13 02:44:38;;;;;;;10.40;6.75;;;;;;;;;;6169299;23;20172;-89
2021/06/13 02:47:46;;;;;;;9.98;6.20;;;;;;;;;;6151397;23;20161;-90
2021/06/13 02:50:51;;;;;;;7.85;6.05;;;;;;;;;;6151831;23;20204;-91
2021/06/13 02:53:58;;;;;;;8.93;6.13;;;;;;;;;;6151811;23;20188;-90
2021/06/13 02:57:07;;;;;;;8.60;6.43;;;;;;;;;;6167222;23;20339;-90
2021/06/13 03:00:18;;;;;;;9.45;6.70;;;;;;;;;;6167395;23;20216;-90
2021/06/13 03:03:28;;;;;;;8.95;5.95;;;;;;;;;;6149444;23;20225;-90
2021/06/13 03:06:34;;;;;;;15.73;7.05;;;;;;;;;;6149589;23;20168;-91
2021/06/13 03:09:42;;;;;;;13.35;6.63;;;;;;;;;;6149694;23;20181;-90
2021/06/13 03:12:54;;;;;;;10.75;6.60;;;;;;;;;;6167902;23;20180;-89
2021/06/13 03:15:59;;;;;;;10.27;6.55;;;;;;;;;;6150678;23;20208;-90
2021/06/13 03:19:07;;;;;;;9.02;6.55;;;;;;;;;;6150769;23;20224;-90
2021/06/13 03:22:12;;;;;;;8.90;6.40;;;;;;;;;;6167067;23;20172;-90
2021/06/13 03:25:18;;;;;;;9.13;6.20;;;;;;;;;;6149883;23;20200;-90
2021/06/13 03:28:25;;;;;;;14.32;6.15;;;;;;;;;;6149061;23;20164;-89
2021/06/13 03:31:31;;;;;;;8.80;6.40;;;;;;;;;;6167602;23;20208;-90
2021/06/13 03:34:38;;;;;;;12.15;6.60;;;;;;;;;;6167751;23;20218;-90
2021/06/13 03:37:45;;;;;;;12.18;6.43;;;;;;;;;;6150383;23;20181;-90
2021/06/13 03:40:53;;;;;;;10.20;6.78;;;;;;;;;;6167205;23;20207;-90
2021/06/13 03:43:58;;;;;;;9.57;6.30;;;;;;;;;;6149069;23;20292;-91
2021/06/13 03:47:03;;;;;;;9.68;6.03;;;;;;;;;;6166065;23;20192;-90
2021/06/13 03:50:11;;;;;;;13.77;6.00;;;;;;;;;;6165829;23;20169;-90
2021/06/13 03:53:16;;;;;;;10.85;5.82;;;;;;;;;;6149492;23;20176;-90
2021/06/13 03:56:22;;;;;;;12.02;5.95;;;;;;;;;;6149434;23;20196;-91
2021/06/13 03:59:28;;;;;;;10.27;5.97;;;;;;;;;;6149669;23;20176;-91
2021/06/13 04:02:33;;;;;;;13.32;6.55;;;;;;;;;;6149045;23;20173;-91
2021/06/13 04:05:45;;;;;;;10.88;6.00;;;;;;;;;;6165459;23;20247;-90
2021/06/13 04:08:51;;;;;;;10.50;5.90;;;;;;;;;;6149432;23;20176;-90
2021/06/13 04:11:57;;;;;;;10.52;5.38;;;;;;;;;;6149312;23;20176;-91
2021/06/13 04:15:02;;;;;;;12.65;5.90;;;;;;;;;;6148899;23;20172;-90
2021/06/13 04:18:09;;;;;;;10.60;5.93;;;;;;;;;;6149070;23;20177;-89
2021/06/13 04:21:16;;;;;;;10.80;5.80;;;;;;;;;;6148700;23;20244;-90
2021/06/13 04:24:23;;;;;;;7.40;4.95;;;;;;;;;;6165735;23;20180;-91
2021/06/13 04:27:29;;;;;;;8.85;5.32;;;;;;;;;;6149438;23;20624;-90
2021/06/13 04:30:34;;;;;;;10.82;5.25;;;;;;;;;;6148718;23;20180;-90
2021/06/13 04:33:40;;;;;;;8.38;4.68;;;;;;;;;;6164676;23;20172;-90
2021/06/13 04:36:47;;;;;;;9.05;5.13;;;;;;;;;;6147860;23;20192;-90
2021/06/13 04:39:52;;;;;;;8.52;4.95;;;;;;;;;;6148849;23;20176;-90
2021/06/13 04:42:57;;;;;;;10.45;4.70;;;;;;;;;;6165696;23;20228;-90
2021/06/13 04:46:02;;;;;;;9.82;4.60;;;;;;;;;;6166644;23;20255;-90
2021/06/13 04:49:08;;;;;;;13.55;4.93;;;;;;;;;;6149467;23;20168;-90
2021/06/13 04:52:15;;;;;;;7.03;4.63;;;;;;;;;;6166697;23;20172;-90
2021/06/13 04:55:24;;;;;;;7.55;4.30;;;;;;;;;;6149304;23;20196;-90
2021/06/13 04:58:30;;;;;;;16.23;5.28;;;;;;;;;;6149334;23;20216;-90
2021/06/13 05:01:35;;;;;;;10.63;3.97;;;;;;;;;;6165716;23;20169;-89
2021/06/13 05:04:40;;;;;;;7.05;3.97;;;;;;;;;;6149282;23;20636;-89
2021/06/13 05:07:46;;;;;;;8.80;4.10;;;;;;;;;;6165914;23;20180;-90
2021/06/13 05:10:53;;;;;;;7.88;4.10;;;;;;;;;;6148166;23;20177;-91
2021/06/13 05:13:58;;;;;;;9.43;3.78;;;;;;;;;;6166525;23;20169;-89
2021/06/13 05:17:04;;;;;;;7.97;4.45;;;;;;;;;;6166454;23;20192;-90
2021/06/13 05:20:09;;;;;;;8.30;4.22;;;;;;;;;;6148295;23;20172;-90
2021/06/13 05:23:16;;;;;;;6.93;3.20;;;;;;;;;;6148494;23;20220;-90
2021/06/13 05:26:21;;;;;;;9.35;3.60;;;;;;;;;;6166010;23;20755;-91
2021/06/13 05:29:26;;;;;;;7.63;3.67;;;;;;;;;;6164998;23;20172;-89
2021/06/13 05:32:31;;;;;;;6.53;3.45;;;;;;;;;;6164231;23;20172;-90
2021/06/13 05:35:37;;;;;;;5.95;3.63;;;;;;;;;;6165572;23;20525;-89
2021/06/13 05:38:44;;;;;;;7.10;3.45;;;;;;;;;;6149296;23;20172;-90
2021/06/13 05:41:49;;;;;;;9.43;3.13;;;;;;;;;;6151663;23;20172;-88
2021/06/13 05:44:54;;;;;;;7.85;3.00;;;;;;;;;;6167334;23;20247;-90
2021/06/13 05:47:59;;;;;;;11.38;2.50;;;;;;;;;;6151347;23;20155;-90
2021/06/13 05:51:06;;;;;;;5.32;1.95;;;;;;;;;;6151423;23;20173;-90
2021/06/13 05:54:12;;;;;;;7.93;2.47;;;;;;;;;;6167722;23;20180;-90
2021/06/13 05:57:17;;;;;;;4.47;1.90;;;;;;;;;;6149429;23;20196;-90
2021/06/13 06:00:24;;;;;;;7.00;2.40;;;;;;;;;;6150457;23;20172;-90
2021/06/13 06:03:29;;;;;;;9.65;2.10;;;;;;;;;;6169202;23;20176;-89
2021/06/13 06:06:35;;;;;;;9.40;2.70;;;;;;;;;;6151315;23;20156;-90
2021/06/13 06:09:41;;;;;;;6.88;2.58;;;;;;;;;;6168848;23;20172;-89
2021/06/13 06:12:50;;;;;;;7.60;2.40;;;;;;;;;;6167720;23;20216;-90
2021/06/13 06:15:55;;;;;;;5.90;2.88;;;;;;;;;;6151470;23;20264;-91
2021/06/13 06:19:01;;;;;;;10.63;2.30;;;;;;;;;;6167205;23;20242;-90
2021/06/13 06:22:07;;;;;;;7.95;2.60;;;;;;;;;;6147780;23;20252;-90
2021/06/13 06:25:14;;;;;;;5.78;2.50;;;;;;;;;;6165494;23;20500;-90
2021/06/13 06:28:19;;;;;;;5.45;2.30;;;;;;;;;;6166136;23;20169;-90
2021/06/13 06:31:24;;;;;;;8.50;2.30;;;;;;;;;;6148230;23;20236;-90
2021/06/13 06:34:29;;;;;;;9.48;2.40;;;;;;;;;;6148290;23;20233;-91
2021/06/13 06:37:34;;;;;;;6.15;2.47;;;;;;;;;;6147920;23;20216;-90
2021/06/13 06:40:41;;;;;;;6.28;2.20;;;;;;;;;;6162471;23;20181;-89
2021/06/13 06:43:46;;;;;;;7.45;1.85;;;;;;;;;;6145686;23;20252;-91
2021/06/13 06:46:51;;;;;;;4.50;1.80;;;;;;;;;;6148348;23;20168;-90
2021/06/13 06:49:56;;;;;;;7.57;2.28;;;;;;;;;;6146518;23;20284;-90
2021/06/13 06:53:01;;;;;;;8.80;2.20;;;;;;;;;;6164770;23;20251;-91
2021/06/13 06:56:07;;;;;;;8.15;2.20;;;;;;;;;;6164109;23;20271;-90
2021/06/13 06:59:12;;;;;;;4.72;1.80;;;;;;;;;;6145793;23;20171;-90
2021/06/13 07:02:18;;;;;;;6.03;1.90;;;;;;;;;;6147401;23;20181;-90
2021/06/13 07:05:22;;;;;;;6.60;1.95;;;;;;;;;;6165844;23;20672;-91
2021/06/13 07:08:27;;;;;;;5.10;1.60;;;;;;;;;;6145679;23;20198;-90
2021/06/13 07:11:33;;;;;;;8.40;1.70;;;;;;;;;;6165430;23;20285;-92
2021/06/13 07:14:38;;;;;;;7.53;2.00;;;;;;;;;;6165850;23;20506;-90
2021/06/13 07:17:43;;;;;;;4.43;1.80;;;;;;;;;;6147329;23;20252;-89
2021/06/13 07:20:48;;;;;;;6.00;1.50;;;;;;;;;;6164975;23;20184;-90
2021/06/13 07:23:54;;;;;;;7.28;1.73;;;;;;;;;;6146682;23;20515;-90
2021/06/13 07:27:00;;;;;;;3.70;1.50;;;;;;;;;;6159019;23;20524;-90
2021/06/13 07:30:05;;;;;;;9.90;2.22;;;;;;;;;;6164840;23;20192;-90
2021/06/13 07:33:10;;;;;;;6.15;1.90;;;;;;;;;;6162014;23;20208;-90
2021/06/13 07:36:15;;;;;;;6.45;1.80;;;;;;;;;;6163863;23;20177;-93
2021/06/13 07:39:21;;;;;;;8.63;1.80;;;;;;;;;;6165561;23;20184;-91
2021/06/13 07:42:28;;;;;;;4.38;1.67;;;;;;;;;;6160650;23;20245;-90
2021/06/13 07:45:34;;;;;;;7.28;1.70;;;;;;;;;;6161678;23;20255;-89
2021/06/13 07:48:39;;;;;;;6.60;1.90;;;;;;;;;;6162719;23;20164;-89
2021/06/13 07:51:44;;;;;;;8.05;2.05;;;;;;;;;;6161809;23;20177;-88
2021/06/13 07:54:48;;;;;;;11.18;1.90;;;;;;;;;;6159649;23;20248;-89
2021/06/13 07:57:55;;;;;;;5.63;2.15;;;;;;;;;;6162417;23;20255;-89
2021/06/13 08:01:00;;;;;;;7.85;2.10;;;;;;;;;;6160852;23;20195;-89
2021/06/13 08:04:05;;;;;;;5.25;1.65;;;;;;;;;;6160115;23;20223;-88
2021/06/13 08:07:10;;;;;;;6.57;2.20;;;;;;;;;;6159448;23;20169;-88
2021/06/13 08:10:15;;;;;;;10.02;2.15;;;;;;;;;;6160057;23;20280;-87
2021/06/13 08:13:22;;;;;;;8.55;2.03;;;;;;;;;;6159248;23;20172;-89
2021/06/13 08:16:26;;;;;;;6.25;1.73;;;;;;;;;;6161401;23;20537;-89
2021/06/13 08:19:33;;;;;;;6.63;2.00;;;;;;;;;;6161881;23;20333;-88
2021/06/13 08:22:38;;;;;;;5.90;1.90;;;;;;;;;;6162086;23;20246;-88
2021/06/13 08:25:43;;;;;;;5.97;1.70;;;;;;;;;;6160669;23;20192;-89
2021/06/13 08:28:50;;;;;;;8.18;2.08;;;;;;;;;;6144492;23;20165;-89
2021/06/13 08:31:55;;;;;;;5.57;2.00;;;;;;;;;;6162841;23;20188;-88
2021/06/13 08:35:00;;;;;;;4.80;1.50;;;;;;;;;;6161965;23;20168;-89
2021/06/13 08:38:05;;;;;;;6.75;1.60;;;;;;;;;;6161540;23;20197;-88
2021/06/13 08:41:10;;;;;;;7.68;1.85;;;;;;;;;;6160378;23;20173;-88
2021/06/13 08:44:17;;;;;;;6.38;1.83;;;;;;;;;;6162018;23;20172;-90
2021/06/13 08:47:22;;;;;;;9.90;1.92;;;;;;;;;;6162498;23;20168;-89
2021/06/13 08:50:27;;;;;;;6.88;2.00;;;;;;;;;;6164692;23;20223;-88
2021/06/13 08:53:33;;;;;;;7.30;2.30;;;;;;;;;;6143394;23;20220;-88
2021/06/13 08:56:38;;;;;;;5.43;2.13;;;;;;;;;;6142754;23;20215;-88
2021/06/13 08:59:46;;;;;;;6.70;2.17;;;;;;;;;;6162619;23;20215;-89
2021/06/13 09:02:51;;;;;;;5.00;2.08;;;;;;;;;;6146721;23;20180;-89
2021/06/13 09:05:56;;;;;;;8.20;2.10;;;;;;;;;;6163844;23;20172;-88
2021/06/13 09:09:02;;;;;;;10.00;2.53;;;;;;;;;;6164403;23;20167;-90
2021/06/13 09:12:08;;;;;;;7.28;2.10;;;;;;;;;;6147398;23;20172;-90
2021/06/13 09:15:18;;;;;;;4.88;1.90;;;;;;;;;;6145299;23;20695;-91
2021/06/13 09:18:35;;;;;;;6.40;2.10;;;;;;;;;;6147845;23;20715;-91
2021/06/13 09:21:41;;;;;;;10.85;2.30;;;;;;;;;;6164274;23;20241;-91
2021/06/13 09:24:46;;;;;;;4.53;1.80;;;;;;;;;;6147187;23;20164;-91
2021/06/13 09:28:05;;;;;;;3.58;1.63;;;;;;;;;;6134592;23;20478;-92
2021/06/13 09:31:16;;;;;;;5.75;1.98;;;;;;;;;;6134332;23;20177;-90
2021/06/13 09:34:21;;;;;;;4.70;1.50;;;;;;;;;;6134885;23;20157;-91
2021/06/13 09:37:27;;;;;;;5.90;1.60;;;;;;;;;;6132522;23;20261;-91
2021/06/13 09:40:32;;;;;;;5.25;1.50;;;;;;;;;;6134456;23;20193;-90
2021/06/13 09:47:02;;;;;;;6.55;1.70;;;;;;;;;;6133261;23;20209;-92
2021/06/13 09:50:08;;;;;;;5.40;1.60;;;;;;;;;;6132505;23;20173;-92
2021/06/13 09:53:20;;;;;;;4.55;1.58;;;;;;;;;;6133647;23;20257;-91
2021/06/13 09:56:26;;;;;;;8.18;2.00;;;;;;;;;;6133081;23;20181;-91
2021/06/13 09:59:36;;;;;;;5.68;1.55;;;;;;;;;;6134892;23;20188;-90
2021/06/13 10:02:43;;;;;;;5.05;1.75;;;;;;;;;;6134406;23;20170;-90
2021/06/13 10:05:56;;;;;;;6.25;1.75;;;;;;;;;;6133665;23;20177;-92
2021/06/13 10:09:01;;;;;;;5.13;1.60;;;;;;;;;;6133791;23;20233;-92
2021/06/13 10:12:08;;;;;;;4.68;1.65;;;;;;;;;;6132554;23;20173;-92
2021/06/13 10:15:13;;;;;;;9.82;1.55;;;;;;;;;;6134672;23;20173;-92
2021/06/13 10:18:20;;;;;;;4.72;1.67;;;;;;;;;;6133910;23;20197;-93
2021/06/13 10:21:27;;;;;;;3.92;1.33;;;;;;;;;;6133821;23;20176;-93
2021/06/13 10:24:34;;;;;;;6.10;1.58;;;;;;;;;;6134529;23;20173;-94
2021/06/13 14:16:28;;;;;;;3.77;1.60;;;;;;;;;;6176473;22;120255;-91
2021/06/13 14:19:37;;;;;;;5.68;1.52;;;;;;;;;;6177152;22;20242;-90
2021/06/13 14:22:42;;;;;;;7.60;1.70;;;;;;;;;;6191885;23;20183;-90
2021/06/13 14:25:47;;;;;;;7.28;1.63;;;;;;;;;;6191215;23;20247;-90
2021/06/13 14:28:53;;;;;;;12.55;2.10;;;;;;;;;;6191254;23;20171;-90
2021/06/13 14:32:00;;;;;;;5.70;1.63;;;;;;;;;;6191708;23;20171;-92
2021/06/13 14:35:05;;;;;;;6.35;1.80;;;;;;;;;;6192928;22;20610;-92
2021/06/13 14:38:10;;;;;;;3.58;1.58;;;;;;;;;;6193922;22;20164;-91
2021/06/13 14:41:16;;;;;;;3.13;1.50;;;;;;;;;;6193235;23;20267;-90
2021/06/13 14:44:21;;;;;;;5.75;1.63;;;;;;;;;;6193636;23;20477;-92
2021/06/13 14:47:27;;;;;;;4.45;1.33;;;;;;;;;;6193488;23;20194;-90
2021/06/13 14:50:33;;;;;;;8.77;2.35;;;;;;;;;;6194856;22;20661;-93
2021/06/13 14:53:38;;;;;;;3.65;1.55;;;;;;;;;;6190888;23;20221;-91
2021/06/13 14:56:44;;;;;;;9.13;1.60;;;;;;;;;;6193206;23;20199;-91
2021/06/13 14:59:50;;;;;;;4.10;1.50;;;;;;;;;;6194519;23;20180;-91
2021/06/13 15:02:56;;;;;;;4.30;1.80;;;;;;;;;;6194331;23;20168;-91
2021/06/13 15:06:01;;;;;;;6.15;1.60;;;;;;;;;;6195592;23;20195;-91
2021/06/13 15:09:07;;;;;;;5.22;1.58;;;;;;;;;;6192560;23;20176;-89
2021/06/13 15:12:12;;;;;;;4.65;1.70;;;;;;;;;;6192341;23;20176;-92
2021/06/13 15:15:17;;;;;;;5.68;1.58;;;;;;;;;;6195477;22;20222;-91
2021/06/13 15:18:24;;;;;;;5.88;1.83;;;;;;;;;;6194598;23;20283;-91
2021/06/13 15:21:30;;;;;;;6.43;2.28;;;;;;;;;;6195609;23;20591;-91
2021/06/13 15:24:35;;;;;;;7.63;1.70;;;;;;;;;;6195905;23;20176;-92
2021/06/13 15:27:41;;;;;;;5.80;1.70;;;;;;;;;;6194380;22;20665;-91
2021/06/13 15:30:46;;;;;;;3.63;1.60;;;;;;;;;;6196106;23;20168;-91
2021/06/13 15:33:53;;;;;;;7.97;2.10;;;;;;;;;;6194333;22;20179;-90
2021/06/13 15:36:59;;;;;;;4.50;1.67;;;;;;;;;;6194414;23;20618;-91
2021/06/13 15:40:05;;;;;;;4.18;1.80;;;;;;;;;;6194879;22;20164;-90
2021/06/13 15:43:11;;;;;;;7.10;1.73;;;;;;;;;;6193112;23;20171;-92
2021/06/13 15:46:16;;;;;;;5.68;1.60;;;;;;;;;;6194166;23;20270;-92
2021/06/13 15:49:44;;;;;;;5.90;1.67;;;;;;;;;;6193718;23;20176;-92
2021/06/13 15:52:51;;;;;;;3.75;1.50;;;;;;;;;;6193827;23;20175;-91
2021/06/13 15:55:56;;;;;;;6.72;1.60;;;;;;;;;;6195186;23;20599;-90
2021/06/13 15:59:09;;;;;;;4.22;1.80;;;;;;;;;;6197839;23;20208;-93
2021/06/13 16:02:16;;;;;;;9.70;1.83;;;;;;;;;;6193632;23;20176;-91
2021/06/13 16:05:22;;;;;;;4.72;1.80;;;;;;;;;;6194315;23;20167;-92
2021/06/13 16:08:50;;;;;;;4.05;1.70;;;;;;;;;;6194921;22;20176;-90
2021/06/13 16:11:58;;;;;;;13.27;1.73;;;;;;;;;;6195693;23;20646;-90
2021/06/13 16:15:03;;;;;;;4.13;1.90;;;;;;;;;;6196522;23;20234;-92
2021/06/13 16:18:09;;;;;;;4.43;1.80;;;;;;;;;;6195749;23;20191;-92
2021/06/13 16:21:18;;;;;;;6.50;1.77;;;;;;;;;;6195154;23;20172;-91
2021/06/13 16:24:24;;;;;;;7.20;2.00;;;;;;;;;;6196139;22;20235;-90
2021/06/13 16:27:31;;;;;;;7.85;1.88;;;;;;;;;;6198690;23;20247;-92
2021/06/13 16:30:36;;;;;;;5.85;1.70;;;;;;;;;;6195340;23;20160;-90
2021/06/13 16:33:41;;;;;;;6.10;1.95;;;;;;;;;;6192908;22;20176;-91
2021/06/13 16:36:46;;;;;;;9.85;1.63;;;;;;;;;;6194510;23;20171;-91
2021/06/13 16:39:52;;;;;;;5.50;1.75;;;;;;;;;;6193880;22;20163;-90
2021/06/13 16:43:00;;;;;;;6.45;1.48;;;;;;;;;;6192764;23;20256;-91
2021/06/13 16:46:06;;;;;;;5.07;1.73;;;;;;;;;;6195062;22;20217;-91
2021/06/13 16:49:11;;;;;;;5.18;1.45;;;;;;;;;;6194841;23;20163;-90
2021/06/13 16:52:16;;;;;;;4.93;1.63;;;;;;;;;;6194604;23;20187;-92
2021/06/13 16:55:22;;;;;;;6.50;1.70;;;;;;;;;;6194168;22;20647;-90
2021/06/13 16:58:32;;;;;;;4.60;1.83;;;;;;;;;;6193618;23;20172;-90
2021/06/13 17:01:37;;;;;;;6.15;2.20;;;;;;;;;;6193923;23;20214;-89
2021/06/13 17:04:42;;;;;;;5.90;1.67;;;;;;;;;;6195277;23;20167;-91
2021/06/13 17:07:47;;;;;;;5.18;1.88;;;;;;;;;;6194714;23;20518;-90
2021/06/13 17:10:55;;;;;;;4.68;1.83;;;;;;;;;;6197966;23;20210;-91
2021/06/13 17:14:02;;;;;;;5.30;1.75;;;;;;;;;;6196285;23;20176;-91
2021/06/13 17:17:08;;;;;;;6.82;2.08;;;;;;;;;;6196073;23;20195;-89
2021/06/13 17:20:16;;;;;;;2.13;1.50;;;;;;;;;;6194580;22;20250;-90
2021/06/13 17:23:23;;;;;;;6.80;2.05;;;;;;;;;;6195677;23;20183;-91
2021/06/13 17:26:29;;;;;;;6.03;1.77;;;;;;;;;;6194695;23;20176;-90
2021/06/13 17:29:40;;;;;;;5.63;2.50;;;;;;;;;;6198235;23;20626;-91
2021/06/13 17:32:45;;;;;;;7.28;1.92;;;;;;;;;;6191517;23;20156;-89
2021/06/13 17:36:25;;;;;;;5.13;1.80;;;;;;;;;;6192800;23;20171;-92
2021/06/13 17:39:30;;;;;;;4.40;1.60;;;;;;;;;;6193750;22;20615;-88
2021/06/13 17:42:36;;;;;;;3.78;1.55;;;;;;;;;;6193357;23;20188;-92
2021/06/13 17:45:43;;;;;;;4.70;1.65;;;;;;;;;;6193447;23;20184;-89
2021/06/13 17:48:50;;;;;;;6.22;1.50;;;;;;;;;;6193716;23;20627;-89
2021/06/13 17:51:56;;;;;;;7.75;2.97;;;;;;;;;;6192467;22;20176;-90
2021/06/13 17:55:02;;;;;;;8.00;1.90;;;;;;;;;;6192366;23;20272;-89
2021/06/13 17:58:08;;;;;;;6.43;1.52;;;;;;;;;;6191562;22;20182;-92
2021/06/13 18:01:15;;;;;;;6.30;1.77;;;;;;;;;;6191161;23;20215;-90
2021/06/13 18:04:22;;;;;;;5.47;2.38;;;;;;;;;;6191979;22;20226;-91
2021/06/13 18:07:27;;;;;;;4.15;1.77;;;;;;;;;;6192933;23;20180;-91
2021/06/13 18:10:33;;;;;;;4.97;2.35;;;;;;;;;;6192640;23;20168;-91
2021/06/13 18:13:39;;;;;;;5.93;2.00;;;;;;;;;;6190986;23;20201;-91
2021/06/13 18:16:45;;;;;;;4.43;1.75;;;;;;;;;;6191984;23;20196;-91
2021/06/13 18:19:51;;;;;;;8.98;2.13;;;;;;;;;;6192015;23;20607;-88
2021/06/13 18:22:56;;;;;;;14.35;6.22;;;;;;;;;;6192455;23;20176;-91
2021/06/13 18:26:02;;;;;;;8.30;2.72;;;;;;;;;;6191431;23;20188;-91
2021/06/13 18:29:08;;;;;;;11.60;4.13;;;;;;;;;;6190745;23;20181;-92
2021/06/13 18:32:16;;;;;;;15.35;5.50;;;;;;;;;;6191449;23;20533;-91
2021/06/13 18:35:21;;;;;;;13.30;4.15;;;;;;;;;;6192669;23;20278;-91
2021/06/13 18:38:27;;;;;;;40.28;15.95;;;;;;;;;;6193396;23;20179;-91
2021/06/13 18:41:35;;;;;;;13.55;4.70;;;;;;;;;;6191439;23;20172;-91
2021/06/13 18:44:40;;;;;;;7.70;1.92;;;;;;;;;;6190669;22;20163;-90
2021/06/13 18:47:47;;;;;;;5.85;1.50;;;;;;;;;;6190895;23;20198;-91
2021/06/13 18:50:54;;;;;;;7.63;2.10;;;;;;;;;;6191390;23;20275;-89
2021/06/13 18:54:00;;;;;;;4.90;2.08;;;;;;;;;;6191950;23;20214;-92
2021/06/13 18:57:06;;;;;;;10.13;3.10;;;;;;;;;;6191681;23;20168;-92
2021/06/13 19:00:13;;;;;;;10.45;2.50;;;;;;;;;;6191529;23;20661;-91
2021/06/13 19:03:21;;;;;;;4.28;1.88;;;;;;;;;;6192786;23;20176;-91
2021/06/13 19:06:26;;;;;;;4.90;1.92;;;;;;;;;;6192326;23;20227;-90
2021/06/13 19:09:33;;;;;;;10.93;2.30;;;;;;;;;;6191328;23;20167;-90
2021/06/13 19:12:40;;;;;;;5.35;1.88;;;;;;;;;;6189574;22;20610;-91
2021/06/13 19:15:45;;;;;;;4.80;1.60;;;;;;;;;;6189434;23;20614;-90
2021/06/13 19:18:52;;;;;;;3.25;1.65;;;;;;;;;;6190318;22;20184;-91
2021/06/13 19:21:58;;;;;;;5.93;2.03;;;;;;;;;;6191043;23;20167;-91
2021/06/13 19:25:03;;;;;;;3.85;1.90;;;;;;;;;;6191561;23;20257;-90
2021/06/13 19:28:08;;;;;;;9.88;1.95;;;;;;;;;;6191877;22;20629;-91
2021/06/13 19:31:14;;;;;;;4.18;1.92;;;;;;;;;;6192238;23;20307;-91
2021/06/13 19:34:20;;;;;;;9.52;3.13;;;;;;;;;;6192035;23;20167;-92
2021/06/13 19:37:33;;;;;;;9.38;2.58;;;;;;;;;;6193370;22;20250;-93
2021/06/13 19:40:38;;;;;;;8.90;2.70;;;;;;;;;;6192957;23;20179;-93
2021/06/13 19:43:44;;;;;;;4.85;1.98;;;;;;;;;;6191775;23;20623;-91
2021/06/13 19:46:49;;;;;;;7.85;3.25;;;;;;;;;;6192669;23;20168;-89
2021/06/13 19:49:55;;;;;;;6.93;2.72;;;;;;;;;;6191967;23;20262;-90
2021/06/13 19:53:01;;;;;;;7.63;2.65;;;;;;;;;;6192664;23;20471;-89
2021/06/13 19:56:10;;;;;;;3.78;2.10;;;;;;;;;;6191627;23;20169;-90
2021/06/13 19:59:15;;;;;;;8.55;2.17;;;;;;;;;;6191702;23;20186;-89
2021/06/13 20:02:20;;;;;;;7.10;2.95;;;;;;;;;;6194452;23;20550;-89
2021/06/13 20:05:26;;;;;;;5.75;2.45;;;;;;;;;;6193037;23;20612;-88
2021/06/13 20:08:31;;;;;;;7.07;2.30;;;;;;;;;;6191135;22;20905;-89
2021/06/13 20:11:39;;;;;;;4.40;2.17;;;;;;;;;;6193264;23;20176;-89
2021/06/13 20:14:44;;;;;;;6.88;2.13;;;;;;;;;;6194337;23;20155;-88
2021/06/13 20:17:51;;;;;;;4.65;1.90;;;;;;;;;;6192750;23;20234;-90
2021/06/13 20:20:59;;;;;;;8.00;2.97;;;;;;;;;;6194466;23;20168;-89
2021/06/13 20:24:04;;;;;;;9.70;2.58;;;;;;;;;;6190676;23;20168;-89
2021/06/13 20:27:09;;;;;;;6.00;2.28;;;;;;;;;;6188653;23;20173;-90
2021/06/13 20:30:15;;;;;;;5.75;2.25;;;;;;;;;;6189513;22;20152;-90
2021/06/13 20:33:20;;;;;;;4.30;2.17;;;;;;;;;;6190780;23;20194;-90
2021/06/13 20:36:26;;;;;;;7.35;2.45;;;;;;;;;;6189916;23;20172;-90
2021/06/13 20:39:31;;;;;;;6.32;2.40;;;;;;;;;;6190206;22;20218;-89
2021/06/13 20:42:36;;;;;;;7.40;2.10;;;;;;;;;;6191173;23;20322;-90
2021/06/13 20:45:41;;;;;;;14.10;2.42;;;;;;;;;;6190863;22;20246;-87
2021/06/13 20:48:50;;;;;;;6.22;2.58;;;;;;;;;;6189781;23;20195;-90
2021/06/13 20:51:56;;;;;;;6.57;2.42;;;;;;;;;;6190898;23;20187;-90
2021/06/13 20:55:01;;;;;;;9.65;3.42;;;;;;;;;;6191840;23;20175;-89
2021/06/13 20:58:08;;;;;;;5.68;2.85;;;;;;;;;;6192281;23;20167;-89
2021/06/13 21:01:17;;;;;;;10.43;3.28;;;;;;;;;;6191878;22;20176;-89
2021/06/13 21:04:25;;;;;;;7.05;2.58;;;;;;;;;;6193168;23;20180;-88
2021/06/13 21:07:32;;;;;;;13.13;3.67;;;;;;;;;;6194042;23;20264;-89
2021/06/13 21:10:38;;;;;;;10.27;2.80;;;;;;;;;;6193488;23;20175;-89
2021/06/13 21:13:43;;;;;;;9.77;2.95;;;;;;;;;;6192399;23;20174;-90
2021/06/13 21:16:48;;;;;;;8.20;3.05;;;;;;;;;;6192027;23;20172;-89
2021/06/13 21:19:53;;;;;;;8.52;3.15;;;;;;;;;;6192691;23;20225;-89
2021/06/13 21:23:00;;;;;;;5.75;2.80;;;;;;;;;;6191841;23;20176;-90
2021/06/13 21:26:05;;;;;;;11.25;3.40;;;;;;;;;;6192326;23;20179;-89
2021/06/13 21:29:10;;;;;;;12.93;3.80;;;;;;;;;;6192290;22;20196;-89
2021/06/13 21:32:15;;;;;;;10.10;3.42;;;;;;;;;;6190985;23;20261;-89
2021/06/13 21:35:21;;;;;;;6.38;2.95;;;;;;;;;;6192577;23;20271;-90
2021/06/13 21:38:27;;;;;;;9.45;3.20;;;;;;;;;;6191747;23;20649;-88
2021/06/13 21:41:32;;;;;;;8.30;3.30;;;;;;;;;;6192104;23;20310;-90
2021/06/13 21:44:38;;;;;;;11.43;3.38;;;;;;;;;;6192882;23;20227;-90
2021/06/13 21:47:44;;;;;;;14.45;4.65;;;;;;;;;;6192449;23;20171;-89
2021/06/13 21:50:49;;;;;;;8.23;3.42;;;;;;;;;;6191991;23;20167;-89
2021/06/13 21:53:57;;;;;;;11.48;4.68;;;;;;;;;;6190710;23;20168;-90
2021/06/13 21:57:02;;;;;;;10.93;2.85;;;;;;;;;;6191832;23;20718;-91
2021/06/13 22:00:10;;;;;;;7.93;3.20;;;;;;;;;;6192864;23;20495;-91
2021/06/13 22:03:56;;;;;;;8.43;2.90;;;;;;;;;;6193075;23;20225;-90
2021/06/13 22:07:01;;;;;;;8.55;3.47;;;;;;;;;;6192443;23;20207;-90
2021/06/13 22:10:08;;;;;;;7.95;3.22;;;;;;;;;;6192513;23;20178;-89
2021/06/13 22:13:13;;;;;;;7.32;3.20;;;;;;;;;;6192141;23;20175;-89
2021/06/13 22:16:18;;;;;;;6.22;3.35;;;;;;;;;;6192361;23;20176;-90
2021/06/13 22:19:23;;;;;;;7.55;2.83;;;;;;;;;;6198286;23;20583;-89
2021/06/13 22:22:29;;;;;;;7.47;3.42;;;;;;;;;;6193226;23;20622;-90
2021/06/13 22:25:36;;;;;;;9.95;3.33;;;;;;;;;;6191826;23;20166;-90
2021/06/13 22:28:41;;;;;;;7.57;3.58;;;;;;;;;;6191001;23;20196;-90